Time;durP1;ratioP1;P1;durP2;ratioP2;P2;SDS_P1;SDS_P2;PMS_P1;PMS_P2;Temp;Humidity;BMP_temperature;BMP_pressure;BME280_temperature;BME280_humidity;BME280_pressure;Samples;Min_cycle;Max_cycle;Signal;HPM_P1;HPM_P2
2023/03/20 00:01:33;;;;;;;7.85;7.65;;;;;;;;;;4189828;28;20108;-62
2023/03/20 00:03:54;;;;;;;8.27;8.18;;;;;;;;;;4188743;28;20075;-62
2023/03/20 00:06:18;;;;;;;7.75;7.55;;;;;;;;;;4191040;28;20059;-62
2023/03/20 00:08:39;;;;;;;7.28;7.18;;;;;;;;;;4203978;28;20106;-62
2023/03/20 00:10:59;;;;;;;7.95;7.80;;;;;;;;;;4189565;28;20373;-62
2023/03/20 00:13:26;;;;;;;7.68;7.47;;;;;;;;;;4189100;28;20060;-62
2023/03/20 00:15:47;;;;;;;6.30;6.20;;;;;;;;;;4190436;28;20228;-63
2023/03/20 00:18:18;;;;;;;5.30;5.20;;;;;;;;;;4191864;28;20108;-62
2023/03/20 00:20:38;;;;;;;5.50;5.40;;;;;;;;;;4190774;28;20240;-62
2023/03/20 00:22:59;;;;;;;5.95;5.85;;;;;;;;;;4191505;28;20059;-62
2023/03/20 00:25:21;;;;;;;6.00;5.90;;;;;;;;;;4191287;28;20079;-62
2023/03/20 00:27:41;;;;;;;6.70;6.60;;;;;;;;;;4189190;28;20130;-62
2023/03/20 00:30:01;;;;;;;5.75;5.65;;;;;;;;;;4190589;28;20055;-62
2023/03/20 00:32:21;;;;;;;4.50;4.30;;;;;;;;;;4194761;28;20095;-62
2023/03/20 00:34:42;;;;;;;5.00;4.80;;;;;;;;;;4190549;28;20055;-62
2023/03/20 00:37:02;;;;;;;5.38;5.18;;;;;;;;;;4192023;28;20184;-61
2023/03/20 00:39:23;;;;;;;2.72;2.72;;;;;;;;;;4190957;28;20075;-62
2023/03/20 00:41:46;;;;;;;3.15;3.15;;;;;;;;;;4192730;28;20060;-62
2023/03/20 00:44:22;;;;;;;3.38;3.38;;;;;;;;;;4191656;28;20055;-62
2023/03/20 00:46:43;;;;;;;4.10;3.90;;;;;;;;;;4190917;28;20086;-62
2023/03/20 00:49:05;;;;;;;4.63;4.53;;;;;;;;;;4191945;28;20063;-62
2023/03/20 00:51:25;;;;;;;4.93;4.82;;;;;;;;;;4191048;28;20056;-62
2023/03/20 00:53:45;;;;;;;4.20;4.05;;;;;;;;;;4194388;28;20227;-62
2023/03/20 00:56:06;;;;;;;4.40;4.22;;;;;;;;;;4189833;28;20139;-62
2023/03/20 00:58:26;;;;;;;3.72;3.72;;;;;;;;;;4190201;28;20058;-62
2023/03/20 01:00:47;;;;;;;2.58;2.58;;;;;;;;;;4192614;28;20358;-62
2023/03/20 01:03:12;;;;;;;4.18;4.07;;;;;;;;;;4195183;28;20047;-62
2023/03/20 01:05:32;;;;;;;4.15;4.13;;;;;;;;;;4190231;28;20120;-63
2023/03/20 01:07:53;;;;;;;2.88;2.83;;;;;;;;;;4192528;28;20050;-62
2023/03/20 01:10:14;;;;;;;3.80;3.70;;;;;;;;;;4194640;28;20141;-62
2023/03/20 01:12:34;;;;;;;4.65;4.53;;;;;;;;;;4196243;28;20051;-62
2023/03/20 01:14:58;;;;;;;5.50;5.30;;;;;;;;;;4190478;28;20387;-62
2023/03/20 01:17:20;;;;;;;6.20;6.10;;;;;;;;;;4192888;28;20386;-62
2023/03/20 01:19:40;;;;;;;6.50;6.30;;;;;;;;;;4195276;28;20043;-62
2023/03/20 01:22:01;;;;;;;6.22;6.13;;;;;;;;;;4189901;28;20361;-62
2023/03/20 01:24:21;;;;;;;5.88;5.68;;;;;;;;;;4189084;28;20044;-62
2023/03/20 01:26:43;;;;;;;6.80;6.60;;;;;;;;;;4189221;28;20052;-62
2023/03/20 01:29:16;;;;;;;6.85;6.63;;;;;;;;;;4189944;28;20100;-62
2023/03/20 01:31:36;;;;;;;6.93;6.82;;;;;;;;;;4189961;28;20056;-63
2023/03/20 01:33:56;;;;;;;5.82;5.63;;;;;;;;;;4188872;28;20044;-63
2023/03/20 01:36:19;;;;;;;4.95;4.85;;;;;;;;;;4189839;28;20112;-62
2023/03/20 01:38:40;;;;;;;6.07;5.97;;;;;;;;;;4189374;28;20289;-63
2023/03/20 01:41:06;;;;;;;5.25;5.15;;;;;;;;;;4190230;28;20044;-63
2023/03/20 01:43:27;;;;;;;5.13;5.03;;;;;;;;;;4188048;28;20048;-63
2023/03/20 01:45:57;;;;;;;4.63;4.30;;;;;;;;;;4190838;28;20051;-63
2023/03/20 01:48:18;;;;;;;5.07;4.95;;;;;;;;;;4189239;28;20044;-63
2023/03/20 01:50:39;;;;;;;8.63;8.25;;;;;;;;;;4189909;28;20101;-63
2023/03/20 01:53:08;;;;;;;7.78;7.45;;;;;;;;;;4191428;28;20048;-63
2023/03/20 01:55:28;;;;;;;8.25;7.90;;;;;;;;;;4191301;28;20378;-63
2023/03/20 01:57:51;;;;;;;7.32;6.72;;;;;;;;;;4190134;28;20048;-63
2023/03/20 02:00:13;;;;;;;7.60;7.40;;;;;;;;;;4190591;28;20390;-63
2023/03/20 02:02:33;;;;;;;6.78;6.47;;;;;;;;;;4192202;28;20233;-62
2023/03/20 02:04:57;;;;;;;6.55;6.22;;;;;;;;;;4176952;28;20048;-63
2023/03/20 02:07:19;;;;;;;8.55;8.25;;;;;;;;;;4189652;28;20358;-62
2023/03/20 02:09:40;;;;;;;9.32;8.80;;;;;;;;;;4190721;28;20051;-62
2023/03/20 02:12:00;;;;;;;9.27;8.80;;;;;;;;;;4195897;28;20413;-62
2023/03/20 02:14:21;;;;;;;10.65;8.75;;;;;;;;;;4191617;28;20048;-62
2023/03/20 02:16:42;;;;;;;9.27;8.73;;;;;;;;;;4192786;28;20051;-62
2023/03/20 02:19:02;;;;;;;7.32;7.10;;;;;;;;;;4193881;28;20048;-62
2023/03/20 02:21:29;;;;;;;6.03;5.93;;;;;;;;;;4194210;28;20412;-63
2023/03/20 02:23:58;;;;;;;4.82;4.72;;;;;;;;;;4192300;28;20052;-63
2023/03/20 02:26:26;;;;;;;4.32;4.13;;;;;;;;;;4192536;28;20044;-63
2023/03/20 02:29:05;;;;;;;3.20;3.20;;;;;;;;;;4193091;28;20383;-63
2023/03/20 02:31:44;;;;;;;3.20;3.05;;;;;;;;;;4193046;28;20098;-63
2023/03/20 02:34:10;;;;;;;4.35;4.07;;;;;;;;;;4192370;28;20048;-63
2023/03/20 02:36:42;;;;;;;3.75;3.72;;;;;;;;;;4191972;28;20231;-63
2023/03/20 02:39:06;;;;;;;4.22;4.10;;;;;;;;;;4193986;28;20048;-63
2023/03/20 02:41:32;;;;;;;4.80;4.70;;;;;;;;;;4191813;28;20379;-63
2023/03/20 02:44:11;;;;;;;5.03;4.93;;;;;;;;;;4189830;28;20048;-63
2023/03/20 02:46:50;;;;;;;4.93;4.72;;;;;;;;;;4193523;28;20308;-63
2023/03/20 02:49:21;;;;;;;5.28;5.13;;;;;;;;;;4192799;28;20151;-64
2023/03/20 02:51:44;;;;;;;70.03;8.85;;;;;;;;;;4191503;28;20056;-63
2023/03/20 02:54:10;;;;;;;3.80;3.60;;;;;;;;;;4191570;28;20051;-63
2023/03/20 02:56:32;;;;;;;5.18;4.55;;;;;;;;;;4191880;28;20043;-63
2023/03/20 02:59:07;;;;;;;4.53;4.43;;;;;;;;;;4190988;28;20227;-63
2023/03/20 03:01:32;;;;;;;4.97;3.83;;;;;;;;;;4191696;28;20074;-63
2023/03/20 03:03:52;;;;;;;3.80;3.70;;;;;;;;;;4192052;28;20090;-63
2023/03/20 03:06:24;;;;;;;4.03;3.92;;;;;;;;;;4191214;28;20048;-63
2023/03/20 03:08:47;;;;;;;4.10;4.00;;;;;;;;;;4191801;28;20055;-63
2023/03/20 03:11:08;;;;;;;4.07;4.07;;;;;;;;;;4191532;28;20044;-63
2023/03/20 03:13:30;;;;;;;3.92;3.83;;;;;;;;;;4192476;28;20287;-63
2023/03/20 03:15:52;;;;;;;3.22;3.22;;;;;;;;;;4189977;28;20044;-63
2023/03/20 03:18:20;;;;;;;4.20;4.10;;;;;;;;;;4193148;28;20083;-64
2023/03/20 03:20:42;;;;;;;4.25;4.22;;;;;;;;;;4192025;28;20103;-63
2023/03/20 03:23:03;;;;;;;3.72;3.72;;;;;;;;;;4190409;28;20072;-63
2023/03/20 03:25:25;;;;;;;3.55;3.38;;;;;;;;;;4192718;28;20056;-63
2023/03/20 03:27:48;;;;;;;52.27;6.90;;;;;;;;;;4193072;28;20051;-63
2023/03/20 03:30:15;;;;;;;81.50;9.00;;;;;;;;;;4191774;28;20048;-63
2023/03/20 03:32:37;;;;;;;35.67;6.28;;;;;;;;;;4190752;28;20040;-63
2023/03/20 03:34:57;;;;;;;20.30;5.30;;;;;;;;;;4192705;28;20459;-63
2023/03/20 03:37:31;;;;;;;8.20;4.32;;;;;;;;;;4192238;28;20087;-63
2023/03/20 03:40:17;;;;;;;71.38;8.68;;;;;;;;;;4191749;28;20056;-63
2023/03/20 03:42:49;;;;;;;6.18;5.72;;;;;;;;;;4182385;28;20416;-63
2023/03/20 03:45:19;;;;;;;197.90;14.98;;;;;;;;;;4192094;28;20044;-63
2023/03/20 03:47:51;;;;;;;204.75;14.70;;;;;;;;;;4190576;28;20063;-63
2023/03/20 03:50:17;;;;;;;216.85;15.63;;;;;;;;;;4190324;28;20395;-63
2023/03/20 03:52:38;;;;;;;98.07;11.30;;;;;;;;;;4191618;28;20043;-64
2023/03/20 03:55:01;;;;;;;34.40;8.35;;;;;;;;;;4192762;28;20059;-63
2023/03/20 03:57:29;;;;;;;6.78;6.57;;;;;;;;;;4192483;28;20044;-63
2023/03/20 03:59:50;;;;;;;6.32;6.20;;;;;;;;;;4190969;28;20083;-63
2023/03/20 04:02:11;;;;;;;7.07;6.88;;;;;;;;;;4193128;28;20375;-63
2023/03/20 04:04:33;;;;;;;7.43;7.22;;;;;;;;;;4192603;28;20060;-63
2023/03/20 04:06:54;;;;;;;6.78;6.18;;;;;;;;;;4189890;28;20443;-63
2023/03/20 04:09:14;;;;;;;6.18;6.07;;;;;;;;;;4191928;28;20455;-63
2023/03/20 04:11:34;;;;;;;6.90;6.78;;;;;;;;;;4193122;28;20052;-64
2023/03/20 04:13:54;;;;;;;6.40;6.00;;;;;;;;;;4192071;28;20143;-63
2023/03/20 04:16:16;;;;;;;29.65;8.43;;;;;;;;;;4188028;28;20079;-63
2023/03/20 04:18:36;;;;;;;18.48;8.25;;;;;;;;;;4190361;28;20147;-63
2023/03/20 04:20:56;;;;;;;9.07;8.25;;;;;;;;;;4190399;28;20087;-63
2023/03/20 04:23:17;;;;;;;13.35;8.45;;;;;;;;;;4189231;28;20052;-64
2023/03/20 04:25:37;;;;;;;7.55;7.00;;;;;;;;;;4188336;28;20044;-63
2023/03/20 04:27:58;;;;;;;6.63;6.53;;;;;;;;;;4190594;28;20090;-64
2023/03/20 04:30:18;;;;;;;6.57;6.38;;;;;;;;;;4190748;28;20048;-64
2023/03/20 04:32:38;;;;;;;7.13;6.72;;;;;;;;;;4188438;28;20044;-63
2023/03/20 04:34:58;;;;;;;6.18;5.97;;;;;;;;;;4191553;28;20051;-64
2023/03/20 04:37:19;;;;;;;7.57;7.07;;;;;;;;;;4190796;28;20048;-64
2023/03/20 04:39:41;;;;;;;7.75;7.22;;;;;;;;;;4191894;28;20052;-64
2023/03/20 04:42:01;;;;;;;5.38;5.20;;;;;;;;;;4190723;28;20111;-64
2023/03/20 04:44:21;;;;;;;7.40;6.85;;;;;;;;;;4191992;28;20044;-64
2023/03/20 04:46:42;;;;;;;9.10;8.60;;;;;;;;;;4191158;28;20079;-64
2023/03/20 04:49:02;;;;;;;6.63;6.53;;;;;;;;;;4192936;28;20044;-63
2023/03/20 04:51:22;;;;;;;7.15;6.95;;;;;;;;;;4189599;28;20133;-63
2023/03/20 04:53:42;;;;;;;5.95;5.57;;;;;;;;;;4191794;28;20044;-64
2023/03/20 04:56:03;;;;;;;7.18;6.75;;;;;;;;;;4192672;28;20087;-64
2023/03/20 04:58:23;;;;;;;7.28;7.07;;;;;;;;;;4178822;28;20091;-63
2023/03/20 05:00:44;;;;;;;6.68;6.47;;;;;;;;;;4189118;28;20267;-63
2023/03/20 05:03:05;;;;;;;5.20;5.10;;;;;;;;;;4192132;28;20271;-63
2023/03/20 05:05:25;;;;;;;5.20;5.10;;;;;;;;;;4193065;28;20541;-63
2023/03/20 05:07:46;;;;;;;4.70;4.50;;;;;;;;;;4190604;28;20051;-63
2023/03/20 05:10:06;;;;;;;4.32;4.22;;;;;;;;;;4190118;28;20436;-63
2023/03/20 05:12:27;;;;;;;4.03;3.92;;;;;;;;;;4192880;28;20079;-63
2023/03/20 05:14:47;;;;;;;4.50;4.40;;;;;;;;;;4193100;28;20057;-63
2023/03/20 05:17:07;;;;;;;5.57;5.28;;;;;;;;;;4188092;28;20094;-63
2023/03/20 05:19:27;;;;;;;5.28;5.10;;;;;;;;;;4191771;28;20060;-63
2023/03/20 05:21:47;;;;;;;5.18;5.07;;;;;;;;;;4192689;28;20052;-63
2023/03/20 05:24:07;;;;;;;5.53;5.43;;;;;;;;;;4187864;28;20108;-63
2023/03/20 05:26:28;;;;;;;5.05;4.95;;;;;;;;;;4190116;28;20078;-63
2023/03/20 05:28:48;;;;;;;3.90;3.80;;;;;;;;;;4191427;28;20407;-63
2023/03/20 05:31:08;;;;;;;3.53;3.47;;;;;;;;;;4190049;28;20048;-63
2023/03/20 05:33:28;;;;;;;4.00;3.90;;;;;;;;;;4191328;28;20074;-63
2023/03/20 05:35:49;;;;;;;5.03;4.82;;;;;;;;;;4190201;28;20047;-63
2023/03/20 05:38:09;;;;;;;8.23;7.55;;;;;;;;;;4191451;28;20055;-63
2023/03/20 05:40:29;;;;;;;14.40;8.10;;;;;;;;;;4188949;28;20060;-63
2023/03/20 05:42:50;;;;;;;28.27;7.35;;;;;;;;;;4189530;28;20044;-63
2023/03/20 05:45:10;;;;;;;8.43;7.72;;;;;;;;;;4190260;28;20263;-63
2023/03/20 05:47:30;;;;;;;25.45;15.02;;;;;;;;;;4192752;28;20402;-62
2023/03/20 05:49:51;;;;;;;18.23;13.27;;;;;;;;;;4193153;28;20056;-62
2023/03/20 05:52:11;;;;;;;7.88;7.22;;;;;;;;;;4192255;28;20315;-63
2023/03/20 05:54:31;;;;;;;42.67;11.80;;;;;;;;;;4193125;28;20052;-62
2023/03/20 05:56:51;;;;;;;44.65;11.50;;;;;;;;;;4193672;28;20064;-63
2023/03/20 05:59:11;;;;;;;6.80;6.20;;;;;;;;;;4193679;28;20044;-63
2023/03/20 06:01:32;;;;;;;6.55;6.35;;;;;;;;;;4192374;28;20100;-62
2023/03/20 06:03:52;;;;;;;5.57;5.47;;;;;;;;;;4193400;28;20391;-63
2023/03/20 06:06:12;;;;;;;6.30;6.20;;;;;;;;;;4194613;28;20052;-62
2023/03/20 06:08:35;;;;;;;7.03;6.82;;;;;;;;;;4192958;28;20052;-63
2023/03/20 06:10:55;;;;;;;5.80;5.70;;;;;;;;;;4193043;28;20144;-62
2023/03/20 06:13:15;;;;;;;5.75;5.55;;;;;;;;;;4193826;28;20102;-63
2023/03/20 06:15:35;;;;;;;6.32;5.72;;;;;;;;;;4194960;28;20074;-63
2023/03/20 06:17:57;;;;;;;5.68;5.57;;;;;;;;;;4192721;28;20225;-63
2023/03/20 06:20:18;;;;;;;5.60;5.25;;;;;;;;;;4192219;28;20051;-66
2023/03/20 06:22:38;;;;;;;4.82;4.72;;;;;;;;;;4193962;28;20052;-65
2023/03/20 06:24:59;;;;;;;4.50;4.40;;;;;;;;;;4192034;28;20043;-64
2023/03/20 06:27:19;;;;;;;2.22;2.22;;;;;;;;;;4191840;28;20311;-64
2023/03/20 06:29:39;;;;;;;3.00;2.90;;;;;;;;;;4191650;28;20244;-64
2023/03/20 06:31:59;;;;;;;3.28;3.10;;;;;;;;;;4192746;28;20079;-64
2023/03/20 06:34:19;;;;;;;3.60;3.40;;;;;;;;;;4194151;28;20366;-64
2023/03/20 06:36:40;;;;;;;2.97;2.92;;;;;;;;;;4192934;28;20240;-64
2023/03/20 06:39:03;;;;;;;2.90;2.80;;;;;;;;;;4191754;28;20263;-64
2023/03/20 06:41:23;;;;;;;3.53;3.53;;;;;;;;;;4192828;28;20067;-64
2023/03/20 06:43:55;;;;;;;3.15;3.13;;;;;;;;;;4192973;28;20409;-64
2023/03/20 06:46:15;;;;;;;3.55;3.47;;;;;;;;;;4190305;28;20044;-64
2023/03/20 06:48:35;;;;;;;3.72;3.72;;;;;;;;;;4192719;28;20271;-64
2023/03/20 06:50:55;;;;;;;4.20;4.10;;;;;;;;;;4194319;28;20048;-64
2023/03/20 06:53:16;;;;;;;3.47;3.38;;;;;;;;;;4190429;28;20143;-64
2023/03/20 06:55:36;;;;;;;4.63;4.53;;;;;;;;;;4191363;28;20334;-64
2023/03/20 06:57:56;;;;;;;3.67;3.58;;;;;;;;;;4191824;28;20056;-64
2023/03/20 07:00:17;;;;;;;3.95;3.85;;;;;;;;;;4194201;28;20052;-64
2023/03/20 07:02:38;;;;;;;3.92;3.83;;;;;;;;;;4189328;28;20236;-64
2023/03/20 07:04:58;;;;;;;4.43;4.32;;;;;;;;;;4192011;28;20048;-64
2023/03/20 07:07:18;;;;;;;6.20;5.95;;;;;;;;;;4191328;28;20066;-64
2023/03/20 07:09:38;;;;;;;5.07;4.97;;;;;;;;;;4190022;28;20051;-64
2023/03/20 07:11:59;;;;;;;5.03;4.70;;;;;;;;;;4191516;28;20147;-64
2023/03/20 07:14:20;;;;;;;4.25;4.07;;;;;;;;;;4191626;28;20134;-64
2023/03/20 07:16:41;;;;;;;7.05;6.38;;;;;;;;;;4191796;28;20056;-64
2023/03/20 07:19:01;;;;;;;6.90;6.35;;;;;;;;;;4190927;28;20040;-64
2023/03/20 07:21:22;;;;;;;6.60;6.30;;;;;;;;;;4191988;28;20095;-64
2023/03/20 07:23:42;;;;;;;7.13;6.82;;;;;;;;;;4191685;28;20105;-64
2023/03/20 07:26:04;;;;;;;6.85;6.65;;;;;;;;;;4191560;28;20079;-64
2023/03/20 07:28:24;;;;;;;7.65;7.32;;;;;;;;;;4191766;28;20047;-64
2023/03/20 07:30:45;;;;;;;6.75;6.43;;;;;;;;;;4192445;28;20083;-64
2023/03/20 07:33:05;;;;;;;6.55;6.45;;;;;;;;;;4191853;28;20044;-63
2023/03/20 07:35:26;;;;;;;6.13;6.03;;;;;;;;;;4192762;28;20112;-63
2023/03/20 07:37:46;;;;;;;4.90;4.80;;;;;;;;;;4192175;28;20104;-64
2023/03/20 07:40:07;;;;;;;4.32;4.22;;;;;;;;;;4190925;28;20060;-63
2023/03/20 07:42:27;;;;;;;4.57;4.30;;;;;;;;;;4192013;28;20408;-63
2023/03/20 07:44:48;;;;;;;4.10;3.90;;;;;;;;;;4191526;28;20052;-63
2023/03/20 07:47:08;;;;;;;3.97;3.97;;;;;;;;;;4192206;28;20326;-63
2023/03/20 07:49:28;;;;;;;4.05;3.95;;;;;;;;;;4191073;28;20040;-63
2023/03/20 07:51:50;;;;;;;6.22;6.00;;;;;;;;;;4192787;28;20147;-63
2023/03/20 07:54:10;;;;;;;4.03;3.92;;;;;;;;;;4190176;28;20056;-63
2023/03/20 07:56:31;;;;;;;4.07;3.97;;;;;;;;;;4190991;28;20104;-63
2023/03/20 07:58:51;;;;;;;4.88;4.65;;;;;;;;;;4191177;28;20236;-63
2023/03/20 08:01:11;;;;;;;3.75;3.65;;;;;;;;;;4193026;28;20048;-63
2023/03/20 08:03:31;;;;;;;4.15;4.05;;;;;;;;;;4190750;28;20056;-63
2023/03/20 08:05:51;;;;;;;3.50;3.40;;;;;;;;;;4193408;28;20052;-63
2023/03/20 08:08:11;;;;;;;3.80;3.80;;;;;;;;;;4193032;28;20086;-63
2023/03/20 08:10:32;;;;;;;4.70;4.38;;;;;;;;;;4192510;28;20060;-63
2023/03/20 08:12:52;;;;;;;3.25;3.25;;;;;;;;;;4192131;28;20052;-63
2023/03/20 08:15:13;;;;;;;6.88;6.55;;;;;;;;;;4194499;28;20080;-63
2023/03/20 08:17:33;;;;;;;5.72;5.63;;;;;;;;;;4190104;28;20048;-63
2023/03/20 08:19:53;;;;;;;5.00;4.90;;;;;;;;;;4190979;28;20056;-63
2023/03/20 08:22:13;;;;;;;5.53;5.25;;;;;;;;;;4192420;28;20091;-63
2023/03/20 08:24:33;;;;;;;7.38;5.25;;;;;;;;;;4194600;28;20071;-63
2023/03/20 08:26:53;;;;;;;5.13;4.82;;;;;;;;;;4190395;28;20082;-63
2023/03/20 08:29:16;;;;;;;4.88;4.78;;;;;;;;;;4191009;28;20043;-63
2023/03/20 08:31:36;;;;;;;5.10;4.80;;;;;;;;;;4189434;28;20123;-63
2023/03/20 08:33:56;;;;;;;5.38;5.10;;;;;;;;;;4190194;28;20052;-63
2023/03/20 08:36:19;;;;;;;5.60;5.25;;;;;;;;;;4189342;28;20087;-63
2023/03/20 08:38:39;;;;;;;5.03;4.93;;;;;;;;;;4190493;28;20044;-63
2023/03/20 08:40:59;;;;;;;5.20;5.07;;;;;;;;;;4190291;28;20063;-63
2023/03/20 08:43:19;;;;;;;4.45;4.22;;;;;;;;;;4190537;28;20060;-62
2023/03/20 08:45:40;;;;;;;3.45;3.45;;;;;;;;;;4190530;28;20083;-63
2023/03/20 08:48:00;;;;;;;4.15;4.05;;;;;;;;;;4190371;28;20323;-63
2023/03/20 08:50:20;;;;;;;4.10;4.00;;;;;;;;;;4190105;28;20064;-63
2023/03/20 08:52:43;;;;;;;3.80;3.70;;;;;;;;;;4190209;28;20051;-63
2023/03/20 08:55:02;;;;;;;4.70;4.60;;;;;;;;;;4189820;28;20048;-63
2023/03/20 08:57:23;;;;;;;6.90;6.55;;;;;;;;;;4189684;28;20086;-63
2023/03/20 08:59:43;;;;;;;7.90;7.60;;;;;;;;;;4192327;28;20115;-62
2023/03/20 09:02:03;;;;;;;2.95;2.95;;;;;;;;;;4191324;28;20067;-62
2023/03/20 09:04:24;;;;;;;3.55;3.45;;;;;;;;;;4190326;28;20370;-63
2023/03/20 09:06:44;;;;;;;4.22;4.13;;;;;;;;;;4192545;28;20071;-63
2023/03/20 09:09:04;;;;;;;3.25;3.25;;;;;;;;;;4193107;28;20240;-63
2023/03/20 09:11:25;;;;;;;4.85;4.75;;;;;;;;;;4189134;28;20044;-63
2023/03/20 09:13:45;;;;;;;5.25;4.95;;;;;;;;;;4189833;28;20236;-63
2023/03/20 09:16:05;;;;;;;4.68;4.28;;;;;;;;;;4191977;28;20044;-63
2023/03/20 09:18:25;;;;;;;3.38;3.30;;;;;;;;;;4193472;28;20232;-63
2023/03/20 09:20:46;;;;;;;7.80;7.50;;;;;;;;;;4187706;28;20079;-63
2023/03/20 09:23:06;;;;;;;9.70;9.18;;;;;;;;;;4190750;28;20056;-62
2023/03/20 09:25:26;;;;;;;6.60;6.35;;;;;;;;;;4194008;28;20097;-62
2023/03/20 09:27:47;;;;;;;3.78;3.67;;;;;;;;;;4190099;28;20052;-62
2023/03/20 09:30:07;;;;;;;4.15;3.95;;;;;;;;;;4189925;28;20038;-62
2023/03/20 09:32:28;;;;;;;3.65;3.65;;;;;;;;;;4192035;28;20063;-62
2023/03/20 09:34:49;;;;;;;3.60;3.50;;;;;;;;;;4191620;28;20359;-62
2023/03/20 09:37:09;;;;;;;4.10;3.90;;;;;;;;;;4191697;28;20069;-62
2023/03/20 09:39:29;;;;;;;4.13;4.03;;;;;;;;;;4190030;28;20074;-62
2023/03/20 09:41:50;;;;;;;3.90;3.80;;;;;;;;;;4191724;28;20044;-62
2023/03/20 09:44:35;;;;;;;5.45;5.25;;;;;;;;;;4191375;28;20042;-62
2023/03/20 09:47:00;;;;;;;5.00;4.90;;;;;;;;;;4191268;28;20040;-62
2023/03/20 09:49:51;;;;;;;7.95;7.50;;;;;;;;;;4190488;28;20075;-62
2023/03/20 09:52:28;;;;;;;5.13;4.65;;;;;;;;;;4190978;28;20359;-62
2023/03/20 09:54:50;;;;;;;6.65;6.38;;;;;;;;;;4193382;28;20063;-62
2023/03/20 09:57:24;;;;;;;7.55;7.10;;;;;;;;;;4187483;28;20359;-62
2023/03/20 09:59:44;;;;;;;3.17;2.97;;;;;;;;;;4188273;28;20048;-62
2023/03/20 10:02:06;;;;;;;3.92;3.92;;;;;;;;;;4188497;28;20122;-62
2023/03/20 10:04:28;;;;;;;3.67;3.58;;;;;;;;;;4189805;28;20048;-62
2023/03/20 10:06:49;;;;;;;2.97;2.97;;;;;;;;;;4189597;28;20060;-62
2023/03/20 10:09:14;;;;;;;2.42;2.42;;;;;;;;;;4189322;28;20366;-62
2023/03/20 10:11:57;;;;;;;3.15;3.15;;;;;;;;;;4189590;28;20247;-62
2023/03/20 10:14:23;;;;;;;4.30;4.20;;;;;;;;;;4189119;28;20044;-62
2023/03/20 10:16:53;;;;;;;4.85;4.75;;;;;;;;;;4191414;28;20410;-62
2023/03/20 10:19:22;;;;;;;3.47;3.20;;;;;;;;;;4190120;28;20051;-62
2023/03/20 10:21:43;;;;;;;7.65;7.00;;;;;;;;;;4189019;28;20045;-62
2023/03/20 10:24:04;;;;;;;3.95;3.85;;;;;;;;;;4188056;28;20319;-62
2023/03/20 10:26:25;;;;;;;2.35;2.13;;;;;;;;;;4191499;28;20232;-62
2023/03/20 10:29:08;;;;;;;3.30;3.20;;;;;;;;;;4189532;28;20227;-62
2023/03/20 10:31:31;;;;;;;3.72;3.53;;;;;;;;;;4187811;28;20052;-62
2023/03/20 10:34:10;;;;;;;4.05;3.95;;;;;;;;;;4193496;28;20074;-62
2023/03/20 10:36:45;;;;;;;4.20;4.10;;;;;;;;;;4192336;28;20040;-62
2023/03/20 10:39:18;;;;;;;4.57;4.47;;;;;;;;;;4192690;28;20079;-61
2023/03/20 10:41:40;;;;;;;5.03;4.93;;;;;;;;;;4192453;28;20326;-61
2023/03/20 10:44:01;;;;;;;6.47;6.15;;;;;;;;;;4192773;28;20039;-62
2023/03/20 10:46:33;;;;;;;5.75;5.65;;;;;;;;;;4194095;28;20043;-61
2023/03/20 10:48:54;;;;;;;5.90;5.60;;;;;;;;;;4192573;28;20280;-62
2023/03/20 10:51:15;;;;;;;5.43;5.32;;;;;;;;;;4192205;28;20078;-61
2023/03/20 10:53:54;;;;;;;4.80;4.70;;;;;;;;;;4194300;28;20048;-61
2023/03/20 10:56:17;;;;;;;5.53;5.32;;;;;;;;;;4192685;28;20129;-61
2023/03/20 10:58:41;;;;;;;4.88;4.68;;;;;;;;;;4191922;28;20039;-62
2023/03/20 11:01:02;;;;;;;11.90;10.90;;;;;;;;;;4192729;28;20076;-61
2023/03/20 11:03:30;;;;;;;25.05;22.60;;;;;;;;;;4194659;28;20052;-61
2023/03/20 11:05:53;;;;;;;8.20;7.90;;;;;;;;;;4191157;28;20300;-61
2023/03/20 11:08:35;;;;;;;5.85;5.65;;;;;;;;;;4190864;28;20067;-61
2023/03/20 11:11:00;;;;;;;6.10;5.90;;;;;;;;;;4193702;28;20239;-61
2023/03/20 11:13:26;;;;;;;3.75;3.65;;;;;;;;;;4192769;28;20229;-61
2023/03/20 11:15:46;;;;;;;3.80;3.72;;;;;;;;;;4192777;28;20252;-61
2023/03/20 11:18:12;;;;;;;3.88;3.78;;;;;;;;;;4191892;28;20080;-61
2023/03/20 11:20:35;;;;;;;5.38;5.28;;;;;;;;;;4191737;28;20044;-61
2023/03/20 11:23:00;;;;;;;9.35;8.88;;;;;;;;;;4190854;28;20051;-61
2023/03/20 11:25:28;;;;;;;4.88;4.78;;;;;;;;;;4190362;28;20040;-61
2023/03/20 11:27:48;;;;;;;3.40;3.30;;;;;;;;;;4190169;28;20056;-61
2023/03/20 11:30:16;;;;;;;2.53;2.42;;;;;;;;;;4190454;28;20071;-61
2023/03/20 11:32:55;;;;;;;1.77;1.77;;;;;;;;;;4190711;28;20044;-61
2023/03/20 11:35:25;;;;;;;1.27;1.27;;;;;;;;;;4190294;28;20284;-61
2023/03/20 11:37:49;;;;;;;1.10;1.10;;;;;;;;;;4190808;28;20112;-61
2023/03/20 11:40:21;;;;;;;1.48;1.48;;;;;;;;;;4191998;28;20272;-61
2023/03/20 11:42:51;;;;;;;1.10;1.10;;;;;;;;;;4190275;28;20048;-61
2023/03/20 11:45:18;;;;;;;2.33;2.22;;;;;;;;;;4189732;28;20249;-61
2023/03/20 11:47:38;;;;;;;1.70;1.60;;;;;;;;;;4192017;28;20056;-61
2023/03/20 11:49:59;;;;;;;2.20;2.20;;;;;;;;;;4190879;28;20048;-61
2023/03/20 11:52:26;;;;;;;2.72;2.72;;;;;;;;;;4191850;28;20067;-61
2023/03/20 11:54:50;;;;;;;2.90;2.70;;;;;;;;;;4191744;28;20286;-61
2023/03/20 11:57:26;;;;;;;2.58;2.47;;;;;;;;;;4191589;28;20086;-61
2023/03/20 11:59:46;;;;;;;2.22;2.22;;;;;;;;;;4189728;28;20099;-61
2023/03/20 12:02:21;;;;;;;1.92;1.92;;;;;;;;;;4191081;28;20229;-61
2023/03/20 12:04:42;;;;;;;2.88;2.70;;;;;;;;;;4191841;28;20090;-61
2023/03/20 12:07:12;;;;;;;2.75;2.65;;;;;;;;;;4189806;28;20258;-62
2023/03/20 12:09:35;;;;;;;3.10;3.00;;;;;;;;;;4193229;28;20040;-61
2023/03/20 12:11:58;;;;;;;2.20;2.00;;;;;;;;;;4193499;28;20048;-61
2023/03/20 12:14:32;;;;;;;1.60;1.60;;;;;;;;;;4190837;28;20386;-61
2023/03/20 12:16:55;;;;;;;2.08;2.08;;;;;;;;;;4192623;28;20236;-61
2023/03/20 12:19:16;;;;;;;;;;;;;;;;;;4193808;28;20048;-62
2023/03/20 12:22:00;;;;;;;2.10;2.00;;;;;;;;;;4189302;28;20245;-61
2023/03/20 12:24:29;;;;;;;2.88;2.03;;;;;;;;;;4190833;28;20047;-61
2023/03/20 12:26:49;;;;;;;1.40;1.30;;;;;;;;;;4193652;28;20358;-61
2023/03/20 12:29:12;;;;;;;1.10;1.10;;;;;;;;;;4191708;28;20415;-61
2023/03/20 12:31:32;;;;;;;1.20;1.20;;;;;;;;;;4190661;28;20048;-61
2023/03/20 12:33:53;;;;;;;1.90;1.15;;;;;;;;;;4192236;28;20055;-61
2023/03/20 12:36:15;;;;;;;1.30;1.30;;;;;;;;;;4193626;28;20051;-61
2023/03/20 12:38:35;;;;;;;2.03;2.03;;;;;;;;;;4189422;28;20351;-61
2023/03/20 12:41:19;;;;;;;2.00;2.00;;;;;;;;;;4189622;28;20063;-61
2023/03/20 12:44:06;;;;;;;1.20;1.20;;;;;;;;;;4192798;28;20040;-60
2023/03/20 12:46:34;;;;;;;2.25;1.40;;;;;;;;;;4170867;28;20068;-60
2023/03/20 12:49:07;;;;;;;1.63;1.63;;;;;;;;;;4189901;28;20048;-60
2023/03/20 12:51:47;;;;;;;1.48;1.48;;;;;;;;;;4189413;28;20232;-60
2023/03/20 12:54:23;;;;;;;1.10;1.10;;;;;;;;;;4187189;28;20397;-60
2023/03/20 12:56:58;;;;;;;1.45;1.10;;;;;;;;;;4188511;28;20386;-60
2023/03/20 12:59:51;;;;;;;1.00;1.00;;;;;;;;;;4189235;28;20086;-60
2023/03/20 13:02:14;;;;;;;1.55;1.45;;;;;;;;;;4156495;28;20052;-60
2023/03/20 13:04:45;;;;;;;1.10;1.10;;;;;;;;;;4190597;28;20271;-60
2023/03/20 13:07:11;;;;;;;1.40;1.33;;;;;;;;;;4187673;28;20068;-61
2023/03/20 13:09:39;;;;;;;1.10;1.10;;;;;;;;;;4191413;28;20078;-61
2023/03/20 13:12:02;;;;;;;1.00;1.00;;;;;;;;;;4191578;28;20085;-60
2023/03/20 13:14:23;;;;;;;1.00;1.00;;;;;;;;;;4190800;28;20047;-60
2023/03/20 13:16:49;;;;;;;1.00;1.00;;;;;;;;;;4189204;28;20043;-60
2023/03/20 13:19:19;;;;;;;1.00;1.00;;;;;;;;;;4192786;28;20099;-60
2023/03/20 13:21:48;;;;;;;1.00;1.00;;;;;;;;;;4191963;28;20083;-61
2023/03/20 13:24:09;;;;;;;1.20;1.20;;;;;;;;;;4188563;28;20039;-60
2023/03/20 13:26:36;;;;;;;1.35;1.02;;;;;;;;;;4191195;28;20048;-60
2023/03/20 13:29:05;;;;;;;1.25;1.15;;;;;;;;;;4192630;28;20051;-60
2023/03/20 13:31:45;;;;;;;1.08;1.08;;;;;;;;;;4188374;28;20110;-60
2023/03/20 13:34:11;;;;;;;1.00;1.00;;;;;;;;;;4190091;28;20060;-60
2023/03/20 13:36:50;;;;;;;1.05;1.05;;;;;;;;;;4192902;28;20043;-61
2023/03/20 13:39:14;;;;;;;1.48;1.48;;;;;;;;;;4190937;28;20067;-61
2023/03/20 13:41:35;;;;;;;0.98;0.98;;;;;;;;;;4190393;28;20297;-61
2023/03/20 13:44:02;;;;;;;1.60;1.20;;;;;;;;;;4191236;28;20228;-58
2023/03/20 13:46:33;;;;;;;1.48;1.00;;;;;;;;;;4190537;28;20048;-57
2023/03/20 13:48:56;;;;;;;1.40;1.20;;;;;;;;;;4192037;28;20163;-57
2023/03/20 13:51:25;;;;;;;1.75;1.20;;;;;;;;;;4188726;28;20056;-58
2023/03/20 13:54:01;;;;;;;1.27;1.27;;;;;;;;;;4189993;28;20045;-58
2023/03/20 13:56:29;;;;;;;1.10;1.10;;;;;;;;;;4192296;28;20231;-57
2023/03/20 13:59:08;;;;;;;1.50;1.50;;;;;;;;;;4194504;28;20043;-57
2023/03/20 14:01:41;;;;;;;2.17;1.10;;;;;;;;;;4188173;28;20071;-58
2023/03/20 14:04:02;;;;;;;1.00;1.00;;;;;;;;;;4192024;28;20079;-57
2023/03/20 14:06:31;;;;;;;1.10;1.10;;;;;;;;;;4195419;28;20263;-58
2023/03/20 14:08:55;;;;;;;1.60;1.50;;;;;;;;;;4192270;28;20114;-58
2023/03/20 14:11:22;;;;;;;1.00;1.00;;;;;;;;;;4193576;28;20271;-58
2023/03/20 14:13:46;;;;;;;1.20;1.20;;;;;;;;;;4193222;28;20231;-58
2023/03/20 14:16:10;;;;;;;1.10;1.10;;;;;;;;;;4192131;28;20288;-58
2023/03/20 14:18:31;;;;;;;1.00;1.00;;;;;;;;;;4190280;28;20119;-58
2023/03/20 14:20:56;;;;;;;1.20;1.10;;;;;;;;;;4192430;28;20047;-57
2023/03/20 14:23:17;;;;;;;1.02;1.02;;;;;;;;;;4192357;28;20040;-57